createdAt,value
2019-02-21T00:01:38.097Z,13.10
2019-02-21T00:04:07.820Z,14.03
2019-02-21T00:06:37.319Z,13.93
2019-02-21T00:09:08.302Z,13.30
2019-02-21T00:11:37.728Z,14.07
2019-02-21T00:14:07.178Z,12.93
2019-02-21T00:16:36.659Z,13.53
2019-02-21T00:19:06.225Z,12.67
2019-02-21T00:21:35.615Z,12.43
2019-02-21T00:24:05.010Z,13.20
2019-02-21T00:26:34.531Z,12.60
2019-02-21T00:29:04.005Z,12.70
2019-02-21T00:31:33.398Z,12.63
2019-02-21T00:34:02.828Z,12.80
2019-02-21T00:36:32.316Z,11.60
2019-02-21T00:39:01.790Z,12.27
2019-02-21T00:41:31.215Z,12.40
2019-02-21T00:44:00.617Z,13.13
2019-02-21T00:46:30.100Z,12.77
2019-02-21T00:48:59.619Z,12.07
2019-02-21T00:51:29.012Z,12.43
2019-02-21T00:53:58.435Z,12.27
2019-02-21T00:56:27.960Z,12.47
2019-02-21T00:58:57.446Z,12.10
2019-02-21T01:01:27.086Z,12.27
2019-02-21T01:03:56.610Z,11.30
2019-02-21T01:06:25.997Z,11.53
2019-02-21T01:08:55.403Z,11.47
2019-02-21T01:11:24.949Z,11.37
2019-02-21T01:13:54.546Z,12.20
2019-02-21T01:16:23.937Z,12.40
2019-02-21T01:18:53.388Z,12.20
2019-02-21T01:21:22.860Z,12.00
2019-02-21T01:23:52.337Z,12.60
2019-02-21T01:26:21.779Z,12.50
2019-02-21T01:28:51.205Z,12.77
2019-02-21T01:31:20.704Z,11.77
2019-02-21T01:33:50.232Z,13.10
2019-02-21T01:36:19.642Z,13.10
2019-02-21T01:38:49.131Z,12.03
2019-02-21T01:41:18.661Z,12.33
2019-02-21T01:43:48.065Z,12.47
2019-02-21T01:46:17.564Z,12.97
2019-02-21T01:48:47.121Z,13.33
2019-02-21T01:51:16.519Z,13.13
2019-02-21T01:53:45.944Z,12.87
2019-02-21T01:56:15.471Z,14.13
2019-02-21T01:58:44.953Z,14.17
2019-02-21T02:01:14.360Z,13.67
2019-02-21T02:03:43.907Z,14.47
2019-02-21T02:06:13.404Z,14.73
2019-02-21T02:08:42.924Z,13.17
2019-02-21T02:11:12.343Z,13.73
2019-02-21T02:13:41.745Z,13.70
2019-02-21T02:16:11.224Z,13.33
2019-02-21T02:18:40.676Z,13.53
2019-02-21T02:21:10.165Z,14.20
2019-02-21T02:23:39.998Z,14.07
2019-02-21T02:26:09.538Z,12.63
2019-02-21T02:28:38.942Z,13.40
2019-02-21T02:31:21.579Z,14.23
2019-02-21T02:33:39.759Z,12.80
2019-02-21T02:36:09.295Z,15.47
2019-02-21T02:38:38.729Z,15.50
2019-02-21T02:41:08.366Z,15.60
2019-02-21T02:43:38.057Z,13.87
2019-02-21T02:46:07.431Z,14.83
2019-02-21T02:48:36.876Z,14.50
2019-02-21T02:51:06.359Z,15.23
2019-02-21T02:53:35.813Z,14.50
2019-02-21T02:56:05.475Z,13.17
2019-02-21T02:58:34.865Z,13.70
2019-02-21T03:01:04.522Z,14.07
2019-02-21T03:03:34.018Z,12.83
2019-02-21T03:06:03.408Z,13.67
2019-02-21T03:08:32.807Z,13.80
2019-02-21T03:11:02.404Z,13.67
2019-02-21T03:13:31.882Z,13.93
2019-02-21T03:16:01.284Z,13.13
2019-02-21T03:18:30.814Z,13.53
2019-02-21T03:21:00.290Z,14.37
2019-02-21T03:23:29.780Z,13.70
2019-02-21T03:25:59.383Z,13.07
2019-02-21T03:28:28.910Z,14.30
2019-02-21T03:30:58.425Z,13.83
2019-02-21T03:33:27.969Z,14.70
2019-02-21T03:35:57.407Z,13.07
2019-02-21T03:38:26.866Z,13.70
2019-02-21T03:40:56.290Z,13.67
2019-02-21T03:43:25.785Z,15.40
2019-02-21T03:45:55.283Z,14.80
2019-02-21T03:48:25.010Z,14.37
2019-02-21T03:50:54.443Z,13.50
2019-02-21T03:53:23.971Z,14.20
2019-02-21T03:55:53.958Z,12.53
2019-02-21T03:58:23.448Z,15.40
2019-02-21T04:00:52.891Z,14.20
2019-02-21T04:03:22.318Z,14.07
2019-02-21T04:05:51.818Z,14.70
2019-02-21T04:08:21.332Z,15.73
2019-02-21T04:10:50.762Z,14.20
2019-02-21T04:13:20.236Z,15.73
2019-02-21T04:15:49.724Z,14.97
2019-02-21T04:18:19.169Z,16.50
2019-02-21T04:20:48.655Z,15.40
2019-02-21T04:23:18.124Z,15.83
2019-02-21T04:25:47.762Z,17.83
2019-02-21T04:28:18.355Z,17.70
2019-02-21T04:30:47.840Z,16.73
2019-02-21T04:33:17.353Z,17.63
2019-02-21T04:35:46.760Z,17.30
2019-02-21T04:38:16.289Z,17.13
2019-02-21T04:40:45.830Z,16.73
2019-02-21T04:43:15.324Z,17.47
2019-02-21T04:45:44.747Z,16.13
2019-02-21T04:48:14.423Z,17.47
2019-02-21T04:50:43.925Z,17.87
2019-02-21T04:53:13.402Z,18.70
2019-02-21T04:55:42.881Z,17.77
2019-02-21T04:58:12.378Z,17.40
2019-02-21T05:00:41.838Z,18.03
2019-02-21T05:03:11.299Z,18.53
2019-02-21T05:05:40.844Z,19.93
2019-02-21T05:08:10.320Z,18.47
2019-02-21T05:10:39.754Z,19.27
2019-02-21T05:13:09.119Z,18.23
2019-02-21T05:15:38.600Z,19.87
2019-02-21T05:18:08.108Z,19.17
2019-02-21T05:20:37.789Z,21.20
2019-02-21T05:23:07.279Z,19.00
2019-02-21T05:25:36.805Z,20.40
2019-02-21T05:28:25.957Z,19.33
2019-02-21T05:30:58.529Z,21.70
2019-02-21T05:33:46.839Z,19.67
2019-02-21T05:36:34.006Z,20.77
2019-02-21T05:39:20.867Z,21.00
2019-02-21T05:42:12.231Z,18.10
2019-02-21T05:44:49.833Z,20.13
2019-02-21T05:47:50.038Z,19.67
2019-02-21T05:50:40.760Z,20.07
2019-02-21T05:53:19.058Z,20.90
2019-02-21T05:56:01.937Z,20.33
2019-02-21T05:58:50.286Z,22.00
2019-02-21T06:01:47.698Z,21.73
2019-02-21T06:04:25.044Z,20.07
2019-02-21T06:07:09.919Z,21.07
2019-02-21T06:09:48.613Z,20.37
2019-02-21T06:12:33.232Z,19.97
2019-02-21T06:15:10.025Z,19.33
2019-02-21T06:18:04.259Z,18.13
2019-02-21T06:20:52.808Z,17.97
2019-02-21T06:23:43.818Z,18.57
2019-02-21T06:26:24.208Z,17.17
2019-02-21T06:29:03.492Z,18.43
2019-02-21T06:31:33.210Z,18.07
2019-02-21T06:34:02.702Z,18.53
2019-02-21T06:36:32.127Z,19.23
2019-02-21T06:39:01.682Z,18.27
2019-02-21T06:41:31.180Z,18.33
2019-02-21T06:44:02.053Z,17.97
2019-02-21T06:46:31.493Z,19.70
2019-02-21T06:49:00.916Z,17.97
2019-02-21T06:51:30.436Z,20.03
2019-02-21T06:53:59.974Z,19.00
2019-02-21T06:56:29.382Z,22.10
2019-02-21T06:58:58.827Z,17.13
2019-02-21T07:01:29.570Z,17.87
2019-02-21T07:04:01.751Z,18.03
2019-02-21T07:06:32.190Z,20.27
2019-02-21T07:09:01.906Z,18.50
2019-02-21T07:11:31.324Z,19.00
2019-02-21T07:14:00.777Z,18.20
2019-02-21T07:16:30.514Z,18.00
2019-02-21T07:19:00.037Z,15.10
2019-02-21T07:21:29.452Z,16.23
2019-02-21T07:23:59.062Z,16.87
2019-02-21T07:26:28.606Z,15.77
2019-02-21T07:28:58.423Z,13.77
2019-02-21T07:31:29.249Z,14.03
2019-02-21T07:34:01.560Z,14.63
2019-02-21T07:36:30.313Z,13.87
2019-02-21T07:39:13.832Z,14.67
2019-02-21T07:41:31.009Z,15.83
2019-02-21T07:44:11.356Z,15.93
2019-02-21T07:46:32.458Z,15.63
2019-02-21T07:49:02.029Z,14.77
2019-02-21T07:51:31.540Z,13.87
2019-02-21T07:54:01.071Z,13.60
2019-02-21T07:56:41.181Z,12.70
2019-02-21T07:59:01.638Z,13.67
2019-02-21T08:01:31.263Z,13.20
2019-02-21T08:04:00.801Z,13.10
2019-02-21T08:06:30.215Z,14.20
2019-02-21T08:09:00.020Z,13.70
2019-02-21T08:11:29.500Z,13.03
2019-02-21T08:14:01.273Z,13.87
2019-02-21T08:16:31.024Z,11.30
2019-02-21T08:19:00.456Z,10.60
2019-02-21T08:21:30.269Z,12.40
2019-02-21T08:23:59.821Z,11.10
2019-02-21T08:26:29.651Z,11.70
2019-02-21T08:28:59.103Z,11.67
2019-02-21T08:31:28.624Z,12.13
2019-02-21T08:34:05.971Z,11.97
2019-02-21T08:36:35.587Z,12.50
2019-02-21T08:39:06.223Z,13.80
2019-02-21T08:41:35.720Z,12.90
2019-02-21T08:44:05.374Z,13.27
2019-02-21T08:46:34.762Z,12.70
2019-02-21T08:49:04.233Z,12.03
2019-02-21T08:51:33.913Z,13.27
2019-02-21T08:54:05.548Z,11.93
2019-02-21T08:56:34.518Z,12.03
2019-02-21T08:59:04.162Z,12.07
2019-02-21T09:01:33.668Z,12.30
2019-02-21T09:04:10.547Z,11.70
2019-02-21T09:06:34.597Z,13.40
2019-02-21T09:09:04.701Z,12.23
2019-02-21T09:11:34.104Z,14.53
2019-02-21T09:14:03.608Z,12.10
2019-02-21T09:16:34.355Z,11.13
2019-02-21T09:19:03.935Z,10.70
2019-02-21T09:21:33.542Z,10.87
2019-02-21T09:24:03.001Z,10.23
2019-02-21T09:26:34.660Z,11.03
2019-02-21T09:29:03.822Z,10.90
2019-02-21T09:31:33.213Z,10.47
2019-02-21T09:34:02.794Z,10.37
2019-02-21T09:36:32.327Z,9.93
2019-02-21T09:39:01.841Z,9.83
2019-02-21T09:41:31.251Z,10.47
2019-02-21T09:44:00.950Z,9.57
2019-02-21T09:46:30.362Z,8.73
2019-02-21T09:48:59.763Z,9.37
2019-02-21T09:51:29.316Z,9.77
2019-02-21T09:53:58.795Z,8.07
2019-02-21T09:56:30.745Z,8.67
2019-02-21T09:58:59.530Z,8.40
2019-02-21T10:01:29.021Z,9.50
2019-02-21T10:03:58.567Z,9.37
2019-02-21T10:06:28.144Z,9.33
2019-02-21T10:08:57.563Z,10.10
2019-02-21T10:11:27.056Z,8.70
2019-02-21T10:13:56.611Z,9.00
2019-02-21T10:16:25.994Z,8.47
2019-02-21T10:18:55.480Z,8.70
2019-02-21T10:21:25.206Z,8.57
2019-02-21T10:23:56.619Z,7.40
2019-02-21T10:26:25.851Z,8.50
2019-02-21T10:28:55.432Z,8.33
2019-02-21T10:31:24.902Z,9.07
2019-02-21T10:33:54.368Z,9.23
2019-02-21T10:36:23.915Z,8.30
2019-02-21T10:38:53.376Z,8.40
2019-02-21T10:41:22.779Z,8.67
2019-02-21T10:43:52.261Z,7.83
2019-02-21T10:46:21.754Z,8.47
2019-02-21T10:48:52.161Z,7.53
2019-02-21T10:51:21.612Z,7.63
2019-02-21T10:53:51.032Z,8.10
2019-02-21T10:56:20.625Z,8.80
2019-02-21T10:58:50.307Z,9.97
2019-02-21T11:01:19.723Z,7.97
2019-02-21T11:03:49.249Z,9.23
2019-02-21T11:06:18.777Z,9.90
2019-02-21T11:08:48.179Z,8.50
2019-02-21T11:11:17.701Z,8.77
2019-02-21T11:13:47.318Z,8.27
2019-02-21T11:16:16.707Z,9.90
2019-02-21T11:18:46.123Z,8.37
2019-02-21T11:21:15.704Z,8.10
2019-02-21T11:23:45.181Z,7.50
2019-02-21T11:26:15.115Z,7.93
2019-02-21T11:28:47.180Z,8.47
2019-02-21T11:31:16.121Z,8.57
2019-02-21T11:33:45.595Z,8.10
2019-02-21T11:36:15.111Z,7.73
2019-02-21T11:38:44.646Z,7.90
2019-02-21T11:41:14.239Z,7.37
2019-02-21T11:43:43.655Z,8.23
2019-02-21T11:46:13.235Z,7.77
2019-02-21T11:48:42.712Z,6.87
2019-02-21T11:51:12.610Z,6.93
2019-02-21T11:53:42.026Z,6.97
2019-02-21T11:56:11.527Z,7.30
2019-02-21T11:58:41.223Z,7.13
2019-02-21T12:01:12.839Z,6.63
2019-02-21T12:03:42.265Z,6.30
2019-02-21T12:06:12.141Z,6.77
2019-02-21T12:08:41.608Z,8.10
2019-02-21T12:11:11.156Z,6.67
2019-02-21T12:13:40.904Z,6.30
2019-02-21T12:16:10.609Z,6.13
2019-02-21T12:18:40.526Z,6.87
2019-02-21T12:21:09.991Z,6.40
2019-02-21T12:23:39.721Z,6.90
2019-02-21T12:26:09.143Z,8.30
2019-02-21T12:28:38.705Z,7.17
2019-02-21T12:31:08.252Z,8.63
2019-02-21T12:33:38.102Z,7.13
2019-02-21T12:36:07.931Z,7.87
2019-02-21T12:38:37.377Z,8.37
2019-02-21T12:41:06.946Z,8.00
2019-02-21T12:43:36.506Z,8.07
2019-02-21T12:46:05.960Z,7.73
2019-02-21T12:48:35.415Z,8.10
2019-02-21T12:51:05.491Z,8.70
2019-02-21T12:53:35.090Z,7.60
2019-02-21T12:56:04.507Z,7.37
2019-02-21T12:58:33.963Z,7.90
2019-02-21T13:01:03.473Z,8.43
2019-02-21T13:03:33.741Z,7.30
2019-02-21T13:06:04.748Z,7.00
2019-02-21T13:08:34.411Z,8.07
2019-02-21T13:11:03.829Z,7.97
2019-02-21T13:13:37.621Z,7.77
2019-02-21T13:16:07.118Z,6.77
2019-02-21T13:18:36.618Z,7.57
2019-02-21T13:21:06.186Z,10.20
2019-02-21T13:23:35.599Z,7.53
2019-02-21T13:26:05.486Z,6.30
2019-02-21T13:28:35.027Z,7.17
2019-02-21T13:31:04.426Z,6.87
2019-02-21T13:33:34.202Z,7.17
2019-02-21T13:36:05.159Z,7.23
2019-02-21T13:38:34.633Z,7.67
2019-02-21T13:41:04.028Z,6.70
2019-02-21T13:43:33.495Z,8.70
2019-02-21T13:46:03.043Z,8.50
2019-02-21T13:48:32.524Z,7.33
2019-02-21T13:51:02.155Z,7.50
2019-02-21T13:53:31.536Z,8.73
2019-02-21T13:56:01.070Z,9.00
2019-02-21T13:58:30.762Z,7.30
2019-02-21T14:01:00.159Z,8.80
2019-02-21T14:03:29.597Z,7.87
2019-02-21T14:06:03.520Z,6.70
2019-02-21T14:08:30.351Z,7.73
2019-02-21T14:11:00.002Z,7.63
2019-02-21T14:13:29.453Z,7.37
2019-02-21T14:15:59.145Z,7.57
2019-02-21T14:18:28.652Z,7.03
2019-02-21T14:20:58.124Z,9.07
2019-02-21T14:23:28.164Z,7.33
2019-02-21T14:25:58.081Z,9.63
2019-02-21T14:28:27.591Z,9.93
2019-02-21T14:30:57.107Z,10.13
2019-02-21T14:33:26.589Z,11.50
2019-02-21T14:35:56.014Z,12.80
2019-02-21T14:38:28.138Z,9.40
2019-02-21T14:40:58.113Z,14.13
2019-02-21T14:43:27.621Z,9.40
2019-02-21T14:45:57.039Z,9.63
2019-02-21T14:48:26.903Z,14.30
2019-02-21T14:50:56.684Z,8.73
2019-02-21T14:53:26.150Z,10.17
2019-02-21T14:55:55.565Z,8.33
2019-02-21T14:58:25.007Z,10.23
2019-02-21T15:00:54.489Z,10.70
2019-02-21T15:03:23.945Z,7.67
2019-02-21T15:05:53.631Z,8.67
2019-02-21T15:08:23.144Z,9.13
2019-02-21T15:10:53.559Z,10.10
2019-02-21T15:13:25.534Z,9.90
2019-02-21T15:15:56.624Z,7.93
2019-02-21T15:18:26.252Z,8.10
2019-02-21T15:20:55.640Z,9.10
2019-02-21T15:23:25.080Z,8.40
2019-02-21T15:25:54.638Z,8.60
2019-02-21T15:28:24.127Z,8.53
2019-02-21T15:30:53.536Z,9.30
2019-02-21T15:33:23.058Z,9.60
2019-02-21T15:35:52.701Z,9.00
2019-02-21T15:38:22.293Z,9.47
2019-02-21T15:40:54.090Z,9.63
2019-02-21T15:43:23.542Z,9.30
2019-02-21T15:45:52.944Z,9.43
2019-02-21T15:48:22.496Z,10.50
2019-02-21T15:50:51.977Z,13.60
2019-02-21T15:53:21.481Z,11.87
2019-02-21T15:55:51.114Z,12.97
2019-02-21T15:58:20.564Z,11.73
2019-02-21T16:00:50.148Z,15.57
2019-02-21T16:03:19.818Z,13.80
2019-02-21T16:05:49.361Z,15.03
2019-02-21T16:08:18.793Z,14.67
2019-02-21T16:10:48.507Z,19.97
2019-02-21T16:13:18.146Z,16.27
2019-02-21T16:15:47.714Z,20.13
2019-02-21T16:18:17.201Z,30.43
2019-02-21T16:20:46.653Z,25.80
2019-02-21T16:23:16.079Z,26.87
2019-02-21T16:25:45.768Z,21.50
2019-02-21T16:28:15.225Z,25.80
2019-02-21T16:30:44.633Z,26.57
2019-02-21T16:33:14.094Z,25.30
2019-02-21T16:35:43.602Z,25.07
2019-02-21T16:38:13.043Z,21.77
2019-02-21T16:40:42.467Z,20.40
2019-02-21T16:43:11.933Z,21.43
2019-02-21T16:45:46.279Z,20.20
2019-02-21T16:48:12.592Z,19.43
2019-02-21T16:50:41.963Z,18.60
2019-02-21T16:53:11.417Z,17.40
2019-02-21T16:55:40.953Z,17.70
2019-02-21T16:58:10.373Z,17.97
2019-02-21T17:00:51.318Z,18.37
2019-02-21T17:03:11.018Z,17.33
2019-02-21T17:05:40.441Z,19.40
2019-02-21T17:08:09.892Z,20.60
2019-02-21T17:10:39.440Z,19.53
2019-02-21T17:13:08.904Z,20.23
2019-02-21T17:15:38.294Z,18.73
2019-02-21T17:18:07.915Z,18.33
2019-02-21T17:20:37.412Z,17.93
2019-02-21T17:23:06.855Z,17.40
2019-02-21T17:25:36.455Z,17.17
2019-02-21T17:28:05.884Z,16.20
2019-02-21T17:30:35.388Z,16.30
2019-02-21T17:33:05.027Z,89.77
2019-02-21T17:35:34.438Z,18.10
2019-02-21T17:38:03.888Z,17.63
2019-02-21T17:40:33.506Z,17.30
2019-02-21T17:43:02.918Z,16.40
2019-02-21T17:45:32.396Z,15.07
2019-02-21T17:48:01.851Z,15.27
2019-02-21T17:50:31.230Z,15.10
2019-02-21T17:53:00.682Z,16.57
2019-02-21T17:55:30.370Z,17.50
2019-02-21T17:57:59.796Z,17.80
2019-02-21T18:00:33.429Z,18.50
2019-02-21T18:03:02.908Z,17.10
2019-02-21T18:05:32.383Z,16.47
2019-02-21T18:08:01.853Z,17.17
2019-02-21T18:10:32.412Z,18.00
2019-02-21T18:13:01.933Z,16.77
2019-02-21T18:15:31.399Z,19.03
2019-02-21T18:18:00.920Z,15.83
2019-02-21T18:20:30.355Z,16.13
2019-02-21T18:22:59.778Z,16.77
2019-02-21T18:25:32.728Z,17.10
2019-02-21T18:28:02.345Z,21.63
2019-02-21T18:30:31.931Z,19.40
2019-02-21T18:33:01.481Z,18.17
2019-02-21T18:35:31.242Z,19.27
2019-02-21T18:38:00.674Z,24.60
2019-02-21T18:40:30.261Z,16.90
2019-02-21T18:42:59.701Z,21.13
2019-02-21T18:45:29.102Z,18.47
2019-02-21T18:47:58.606Z,19.63
2019-02-21T18:50:37.742Z,15.93
2019-02-21T18:52:59.238Z,17.27
2019-02-21T18:55:28.681Z,16.87
2019-02-21T18:57:58.124Z,16.30
2019-02-21T19:00:27.831Z,15.03
2019-02-21T19:02:57.297Z,16.33
2019-02-21T19:05:35.275Z,16.87
2019-02-21T19:08:04.692Z,17.93
2019-02-21T19:10:29.220Z,18.50
2019-02-21T19:13:00.050Z,19.30
2019-02-21T19:15:29.604Z,17.80
2019-02-21T19:17:59.079Z,19.23
2019-02-21T19:20:28.685Z,18.30
2019-02-21T19:22:58.118Z,17.83
2019-02-21T19:25:27.683Z,19.47
2019-02-21T19:27:57.150Z,22.57
2019-02-21T19:30:29.921Z,25.23
2019-02-21T19:32:59.481Z,22.53
2019-02-21T19:35:28.972Z,22.00
2019-02-21T19:38:09.547Z,20.40
2019-02-21T19:40:29.720Z,19.10
2019-02-21T19:42:59.681Z,17.53
2019-02-21T19:45:29.255Z,17.67
2019-02-21T19:47:58.757Z,18.33
2019-02-21T19:50:28.232Z,18.33
2019-02-21T19:52:57.737Z,18.20
2019-02-21T19:55:27.258Z,18.80
2019-02-21T19:57:56.674Z,20.27
2019-02-21T20:00:26.845Z,20.93
2019-02-21T20:02:56.147Z,19.53
2019-02-21T20:05:25.789Z,19.03
2019-02-21T20:07:55.347Z,21.00
2019-02-21T20:10:24.898Z,18.73
2019-02-21T20:12:54.763Z,18.97
2019-02-21T20:15:25.213Z,18.67
2019-02-21T20:17:54.695Z,16.83
2019-02-21T20:20:24.209Z,16.13
2019-02-21T20:22:53.622Z,14.70
2019-02-21T20:25:23.368Z,14.83
2019-02-21T20:27:52.803Z,15.07
2019-02-21T20:30:22.278Z,15.27
2019-02-21T20:32:51.758Z,15.07
2019-02-21T20:35:21.150Z,15.53
2019-02-21T20:37:50.628Z,14.67
2019-02-21T20:40:20.142Z,14.57
2019-02-21T20:42:49.674Z,13.73
2019-02-21T20:45:19.174Z,14.93
2019-02-21T20:47:48.907Z,13.93
2019-02-21T20:50:18.688Z,12.90
2019-02-21T20:52:48.117Z,13.50
2019-02-21T20:55:17.570Z,13.30
2019-02-21T20:57:47.104Z,13.80
2019-02-21T21:00:18.354Z,12.37
2019-02-21T21:02:47.958Z,12.77
2019-02-21T21:05:17.442Z,12.17
2019-02-21T21:07:46.949Z,12.43
2019-02-21T21:10:16.972Z,12.23
2019-02-21T21:12:46.463Z,11.87
2019-02-21T21:15:16.071Z,13.17
2019-02-21T21:17:45.878Z,12.43
2019-02-21T21:20:16.809Z,12.30
2019-02-21T21:22:46.426Z,12.87
2019-02-21T21:25:16.358Z,12.80
2019-02-21T21:27:45.787Z,12.27
2019-02-21T21:30:15.555Z,12.63
2019-02-21T21:32:45.049Z,11.00
2019-02-21T21:35:14.726Z,11.63
2019-02-21T21:37:44.350Z,11.13
2019-02-21T21:40:14.556Z,11.27
2019-02-21T21:42:44.077Z,11.83
2019-02-21T21:45:15.746Z,11.17
2019-02-21T21:47:45.457Z,12.67
2019-02-21T21:50:16.558Z,11.67
2019-02-21T21:52:45.983Z,11.97
2019-02-21T21:55:15.629Z,11.47
2019-02-21T21:57:45.097Z,10.03
2019-02-21T22:00:19.721Z,11.10
2019-02-21T22:02:49.145Z,11.20
2019-02-21T22:05:18.547Z,12.03
2019-02-21T22:07:49.410Z,11.90
2019-02-21T22:10:19.290Z,12.27
2019-02-21T22:12:48.800Z,12.33
2019-02-21T22:15:18.581Z,10.70
2019-02-21T22:17:48.024Z,11.70
2019-02-21T22:20:18.105Z,10.70
2019-02-21T22:22:47.571Z,11.73
2019-02-21T22:25:17.159Z,10.73
2019-02-21T22:27:46.564Z,10.90
2019-02-21T22:30:16.832Z,10.20
2019-02-21T22:32:46.263Z,11.90
2019-02-21T22:35:15.839Z,10.90
2019-02-21T22:37:45.354Z,11.93
2019-02-21T22:40:15.010Z,12.47
2019-02-21T22:42:44.471Z,11.77
2019-02-21T22:45:14.317Z,12.23
2019-02-21T22:47:43.848Z,13.37
2019-02-21T22:50:14.474Z,13.13
2019-02-21T22:52:44.169Z,12.87
2019-02-21T22:55:13.876Z,13.60
2019-02-21T22:57:43.318Z,12.27
2019-02-21T23:01:05.217Z,19.63
2019-02-21T23:03:49.692Z,12.80
2019-02-21T23:06:52.722Z,12.07
2019-02-21T23:09:27.447Z,12.37
2019-02-21T23:11:55.692Z,12.70
2019-02-21T23:14:25.178Z,11.43
2019-02-21T23:16:54.554Z,13.40
2019-02-21T23:19:24.259Z,12.03
2019-02-21T23:21:53.818Z,14.13
2019-02-21T23:24:23.257Z,11.87
2019-02-21T23:26:52.802Z,11.60
2019-02-21T23:29:22.234Z,13.40
2019-02-21T23:31:51.706Z,11.47
2019-02-21T23:34:29.079Z,12.70
2019-02-21T23:36:58.464Z,11.03
2019-02-21T23:39:37.526Z,12.10
2019-02-21T23:41:59.126Z,13.83
2019-02-21T23:44:28.569Z,15.43
2019-02-21T23:46:58.046Z,15.13
2019-02-21T23:49:27.539Z,13.80
2019-02-21T23:51:56.943Z,14.73
2019-02-21T23:54:26.380Z,14.53
2019-02-21T23:56:55.894Z,14.20
2019-02-21T23:59:25.328Z,15.13
